Time;durP1;ratioP1;P1;durP2;ratioP2;P2;SDS_P1;SDS_P2;PMS_P1;PMS_P2;Temp;Humidity;BMP_temperature;BMP_pressure;BME280_temperature;BME280_humidity;BME280_pressure;Samples;Min_cycle;Max_cycle;Signal;HPM_P1;HPM_P2
2022/06/13 00:00:31;;;;;;;11.05;6.33;;;;;;;27.74;46.27;100880.88;1720665;83;21010;-51
2022/06/13 00:03:00;;;;;;;9.97;5.97;;;;;;;27.72;46.49;100884.19;1652367;86;21088;-51
2022/06/13 00:05:26;;;;;;;7.50;6.12;;;;;;;27.70;46.23;100883.48;1728396;83;21112;-48
2022/06/13 00:07:55;;;;;;;6.45;5.50;;;;;;;27.67;46.47;100871.23;1728269;83;21017;-48
2022/06/13 00:10:23;;;;;;;8.85;5.90;;;;;;;27.66;46.42;100872.20;1728781;83;21545;-50
2022/06/13 00:12:50;;;;;;;6.87;5.85;;;;;;;27.66;46.04;100872.69;1728348;83;21009;-49
2022/06/13 00:15:18;;;;;;;6.80;5.78;;;;;;;27.69;46.09;100875.09;1728045;83;21501;-50
2022/06/13 00:17:47;;;;;;;7.45;6.12;;;;;;;27.70;45.69;100875.47;1728169;83;21096;-49
2022/06/13 00:20:14;;;;;;;7.40;6.05;;;;;;;27.72;45.82;100872.16;1728147;83;21021;-50
2022/06/13 00:22:40;;;;;;;6.28;5.60;;;;;;;27.72;45.92;100876.17;1728079;83;21073;-49
2022/06/13 00:25:09;;;;;;;6.72;6.12;;;;;;;27.72;45.59;100872.98;1751818;80;21022;-53
2022/06/13 00:27:36;;;;;;;6.92;6.33;;;;;;;27.71;45.26;100883.34;1778486;80;21006;-53
2022/06/13 00:30:07;;;;;;;9.58;6.70;;;;;;;27.69;45.01;100879.11;1772995;80;20983;-53
2022/06/13 00:32:34;;;;;;;6.95;6.15;;;;;;;27.65;44.79;100881.22;1789391;80;21521;-49
2022/06/13 00:35:02;;;;;;;8.45;6.37;;;;;;;27.63;44.41;100885.87;1779992;80;21057;-51
2022/06/13 00:37:29;;;;;;;6.55;5.92;;;;;;;27.59;44.55;100888.47;1784022;80;20999;-52
2022/06/13 00:39:57;;;;;;;7.00;6.30;;;;;;;27.57;44.16;100885.09;1776027;80;20998;-56
2022/06/13 00:42:25;;;;;;;8.00;6.20;;;;;;;27.56;43.72;100886.54;1776763;80;21132;-51
2022/06/13 00:45:09;;;;;;;6.85;6.25;;;;;;;27.52;44.07;100880.63;1781047;80;21049;-53
2022/06/13 00:47:38;;;;;;;6.65;6.05;;;;;;;27.50;43.99;100876.40;1787992;80;21018;-53
2022/06/13 00:50:08;;;;;;;6.65;5.97;;;;;;;27.47;44.38;100872.69;1780796;80;21026;-50
2022/06/13 00:52:47;;;;;;;6.45;5.85;;;;;;;27.44;44.20;100879.62;1776475;80;21002;-49
2022/06/13 00:55:17;;;;;;;8.15;6.15;;;;;;;27.43;44.24;100883.30;1772906;80;21034;-49
2022/06/13 00:57:45;;;;;;;8.43;6.75;;;;;;;27.43;44.26;100887.31;1776002;80;21013;-49
2022/06/13 01:00:13;;;;;;;6.37;5.78;;;;;;;27.41;44.12;100881.26;1779038;80;21100;-49
2022/06/13 01:02:44;;;;;;;6.75;5.75;;;;;;;27.41;44.11;100885.27;1786303;80;21007;-49
2022/06/13 01:05:11;;;;;;;6.75;5.85;;;;;;;27.38;44.04;100891.23;1769199;80;20959;-54
2022/06/13 01:07:38;;;;;;;7.92;6.03;;;;;;;27.36;44.12;100895.88;1739158;81;21055;-50
2022/06/13 01:12:51;;;;;;;7.25;6.35;;;;;;;27.29;45.12;100892.02;1760984;81;21007;-49
2022/06/13 01:15:29;;;;;;;7.47;6.25;;;;;;;27.25;46.10;100887.93;1761888;81;21042;-50
2022/06/13 01:18:12;;;;;;;6.08;5.50;;;;;;;27.24;45.69;100887.56;1755470;81;21522;-51
2022/06/13 01:20:59;;;;;;;5.90;5.40;;;;;;;27.22;45.12;100888.19;1760970;81;21574;-51
2022/06/13 01:23:59;;;;;;;11.83;6.37;;;;;;;27.22;44.86;100888.19;1752119;81;21549;-49
2022/06/13 01:26:57;;;;;;;7.00;6.00;;;;;;;27.22;44.79;100886.03;1764777;81;21506;-50
2022/06/13 01:29:55;;;;;;;7.80;6.33;;;;;;;27.21;44.64;100891.86;1766177;81;21467;-51
2022/06/13 01:32:55;;;;;;;6.65;6.05;;;;;;;27.19;44.67;100891.15;1774030;81;21023;-49
2022/06/13 01:35:54;;;;;;;6.83;6.17;;;;;;;27.17;44.43;100886.91;1762639;80;21551;-51
2022/06/13 01:39:02;;;;;;;7.45;6.30;;;;;;;27.15;44.56;100887.06;1771260;81;21164;-52
2022/06/13 01:41:38;;;;;;;9.68;6.08;;;;;;;27.12;44.26;100898.00;1688213;83;21003;-51
2022/06/13 01:44:15;;;;;;;7.03;6.35;;;;;;;27.11;44.84;100900.81;1706624;83;21019;-52
2022/06/13 01:47:14;;;;;;;7.90;6.05;;;;;;;27.09;45.06;100904.97;1706658;83;21014;-51
2022/06/13 01:50:11;;;;;;;6.15;5.60;;;;;;;27.06;45.38;100904.40;1590451;89;21106;-50
2022/06/13 01:52:55;;;;;;;6.25;5.75;;;;;;;27.04;45.38;100903.17;1586982;89;21155;-52
2022/06/13 01:55:49;;;;;;;6.70;6.10;;;;;;;27.03;45.39;100900.64;1591394;89;21082;-50
2022/06/13 01:58:33;;;;;;;7.20;6.50;;;;;;;27.02;45.32;100910.48;1593231;89;21062;-50
2022/06/13 02:01:09;;;;;;;6.60;6.00;;;;;;;27.00;45.21;100905.77;1576389;90;21123;-52
2022/06/13 02:03:44;;;;;;;7.53;6.83;;;;;;;26.97;45.56;100906.05;1580777;89;21098;-52
2022/06/13 02:06:32;;;;;;;7.20;5.97;;;;;;;26.96;45.79;100912.35;1544090;92;21142;-54
2022/06/13 02:09:10;;;;;;;6.83;5.90;;;;;;;26.96;45.87;100908.83;1503004;95;21113;-51
2022/06/13 02:11:47;;;;;;;6.50;5.90;;;;;;;26.95;46.35;100908.01;1498246;95;21089;-48
2022/06/13 02:14:20;;;;;;;6.25;5.60;;;;;;;26.96;46.40;100915.02;1492763;95;21070;-51
2022/06/13 02:17:17;;;;;;;6.25;5.65;;;;;;;26.96;46.52;100917.69;1497219;95;21011;-50
2022/06/13 02:19:59;;;;;;;6.17;5.62;;;;;;;26.98;46.42;100918.41;1522247;94;21625;-49
2022/06/13 02:22:46;;;;;;;6.97;6.00;;;;;;;27.02;46.42;100926.50;1424969;100;21104;-50
2022/06/13 02:25:29;;;;;;;6.60;5.83;;;;;;;27.02;46.59;100930.51;1424907;100;21195;-49
2022/06/13 02:27:58;;;;;;;;;;;;;;;27.03;46.56;100926.88;1467002;96;21161;-48
2022/06/13 02:30:29;;;;;;;6.62;5.83;;;;;;;27.04;46.49;100931.70;1472018;97;20110;-51
2022/06/13 02:33:23;;;;;;;6.25;5.65;;;;;;;27.02;46.10;100927.84;1440143;99;21151;-54
2022/06/13 02:35:57;;;;;;;6.37;5.78;;;;;;;27.01;46.06;100931.98;1437088;99;21150;-56
2022/06/13 02:38:31;;;;;;;6.53;5.92;;;;;;;26.99;46.02;100936.13;1431026;99;21119;-52
2022/06/13 02:41:02;;;;;;;11.12;5.53;;;;;;;26.97;46.60;100935.42;1405582;101;21586;-51
2022/06/13 02:43:35;;;;;;;;;;;;;;;26.97;46.53;100948.78;1395290;100;21133;-51
2022/06/13 02:46:16;;;;;;;6.70;5.53;;;;;;;26.96;46.15;100944.40;1468358;96;20124;-50
2022/06/13 02:49:05;;;;;;;;;;;;;;;26.94;46.12;100953.03;1470201;98;21099;-53
2022/06/13 02:51:55;;;;;;;6.10;5.50;;;;;;;26.93;46.33;100956.70;1468433;98;20108;-51
2022/06/13 02:54:35;;;;;;;6.25;5.65;;;;;;;26.92;46.10;100956.33;1414964;100;21117;-52
2022/06/13 02:57:27;;;;;;;6.20;5.62;;;;;;;26.92;46.89;100953.66;1395051;101;21153;-51
2022/06/13 03:00:24;;;;;;;6.58;5.97;;;;;;;26.94;46.94;100953.52;1412023;99;21747;-54
2022/06/13 03:03:28;;;;;;;6.17;5.35;;;;;;;26.98;47.76;100963.80;1425860;99;21190;-55
2022/06/13 03:06:18;;;;;;;6.22;5.60;;;;;;;26.98;47.25;100957.12;1385661;102;21619;-51
2022/06/13 03:08:59;;;;;;;5.45;5.03;;;;;;;26.98;46.84;100963.80;1400541;102;21694;-50
2022/06/13 03:11:41;;;;;;;6.37;5.62;;;;;;;26.99;46.54;100962.84;1448732;98;21169;-49
2022/06/13 03:14:19;;;;;;;;;;;;;;;27.00;46.73;100955.17;1442386;98;21168;-53
2022/06/13 03:17:07;;;;;;;6.30;5.70;;;;;;;27.00;45.86;100953.83;1448181;98;20138;-52
2022/06/13 03:20:08;;;;;;;5.53;5.03;;;;;;;26.99;45.66;100949.97;1479286;94;21130;-51
2022/06/13 03:22:46;;;;;;;5.70;5.17;;;;;;;26.99;46.40;100963.33;1500731;94;21686;-53
2022/06/13 03:25:49;;;;;;;7.25;5.42;;;;;;;26.98;46.19;100959.80;1499664;94;21107;-50
2022/06/13 03:28:24;;;;;;;5.55;5.05;;;;;;;26.98;46.57;100961.61;1502911;94;21107;-49
2022/06/13 03:31:02;;;;;;;5.70;5.12;;;;;;;26.98;46.94;100971.81;1501547;94;21097;-50
2022/06/13 03:33:41;;;;;;;4.70;4.30;;;;;;;27.00;46.39;100969.86;1514926;90;21170;-52
2022/06/13 03:36:22;;;;;;;5.50;4.65;;;;;;;27.01;46.39;100979.58;1586929;90;21078;-52
2022/06/13 03:39:16;;;;;;;5.12;4.75;;;;;;;27.03;46.68;100985.63;1540798;93;21208;-51
2022/06/13 03:42:21;;;;;;;5.30;4.85;;;;;;;27.08;47.04;100983.39;1600785;89;21073;-52
2022/06/13 03:45:09;;;;;;;6.75;4.58;;;;;;;27.17;47.14;100988.43;1610819;89;21145;-53
2022/06/13 03:48:15;;;;;;;5.70;5.20;;;;;;;27.37;47.42;100987.08;1525184;94;21093;-50
2022/06/13 03:51:00;;;;;;;7.03;5.22;;;;;;;27.68;46.76;100988.36;1487977;96;21123;-51
2022/06/13 03:53:43;;;;;;;5.12;4.62;;;;;;;28.03;45.92;100990.08;1495716;96;21101;-55
2022/06/13 03:56:28;;;;;;;7.85;5.20;;;;;;;28.37;45.29;100991.38;1502323;95;21113;-50
2022/06/13 03:59:27;;;;;;;5.55;5.08;;;;;;;28.71;44.45;100991.78;1494170;94;21154;-50
2022/06/13 04:02:11;;;;;;;6.42;5.03;;;;;;;28.93;43.70;100997.66;1501964;94;21077;-52
2022/06/13 04:04:44;;;;;;;5.00;4.58;;;;;;;29.08;43.44;101002.58;1513798;92;21182;-52
2022/06/13 04:07:11;;;;;;;4.97;4.58;;;;;;;29.09;43.38;101012.28;1546209;92;21051;-49
2022/06/13 04:09:45;;;;;;;4.90;4.50;;;;;;;28.97;43.48;101004.41;1545756;92;21712;-52
2022/06/13 04:12:18;;;;;;;5.20;4.70;;;;;;;28.84;43.66;101003.89;1549557;92;21113;-50
2022/06/13 04:15:14;;;;;;;8.95;5.55;;;;;;;28.72;44.07;101009.06;1542319;92;21090;-49
2022/06/13 04:18:21;;;;;;;5.55;4.78;;;;;;;28.62;44.11;101014.93;1596797;89;21062;-50
2022/06/13 04:21:16;;;;;;;6.75;5.08;;;;;;;28.49;43.57;101008.98;1599399;89;21046;-53
2022/06/13 04:24:19;;;;;;;7.83;4.60;;;;;;;28.38;43.84;101006.44;1605208;83;21097;-52
2022/06/13 04:27:31;;;;;;;5.40;4.95;;;;;;;28.25;43.89;101008.56;1634285;86;21038;-52
2022/06/13 04:30:14;;;;;;;6.17;5.15;;;;;;;28.12;44.21;101017.34;1632465;88;21062;-52
2022/06/13 04:32:54;;;;;;;7.65;5.00;;;;;;;27.98;44.77;101014.59;1601563;89;21078;-50
2022/06/13 04:35:22;;;;;;;5.78;5.28;;;;;;;27.91;44.57;101020.58;1506286;95;21103;-50
2022/06/13 04:37:49;;;;;;;5.40;4.90;;;;;;;27.86;44.56;101024.17;1520079;94;21131;-51
2022/06/13 04:40:24;;;;;;;5.45;5.05;;;;;;;27.81;44.84;101010.36;1554693;92;21134;-55
2022/06/13 04:42:51;;;;;;;5.20;4.80;;;;;;;27.79;45.01;101012.32;1554854;92;21070;-50
2022/06/13 04:45:53;;;;;;;6.35;5.25;;;;;;;27.75;45.24;101013.58;1553555;92;21107;-52
2022/06/13 04:48:21;;;;;;;5.78;5.22;;;;;;;27.71;45.27;101020.19;1554521;92;21567;-51
2022/06/13 04:50:51;;;;;;;5.62;5.05;;;;;;;27.70;45.69;101019.84;1554845;92;21089;-52
2022/06/13 04:53:27;;;;;;;6.95;4.55;;;;;;;27.73;45.87;101019.55;1584595;89;21555;-51
2022/06/13 04:55:54;;;;;;;5.67;5.10;;;;;;;27.78;45.88;101025.35;1599981;89;21043;-51
2022/06/13 04:58:29;;;;;;;5.95;5.45;;;;;;;27.83;45.71;101032.45;1579974;89;21086;-51
2022/06/13 05:01:15;;;;;;;6.05;5.37;;;;;;;27.90;45.80;101028.27;1628991;86;21590;-50
2022/06/13 05:03:43;;;;;;;5.00;4.60;;;;;;;28.00;45.70;101025.14;1657315;86;21021;-49
2022/06/13 05:06:26;;;;;;;5.72;5.22;;;;;;;28.16;45.35;101022.77;1655946;86;21533;-49
2022/06/13 05:09:00;;;;;;;5.00;4.53;;;;;;;28.30;44.96;101025.03;1632263;88;21113;-53
2022/06/13 05:11:35;;;;;;;5.65;4.90;;;;;;;28.45;44.99;101031.66;1604580;89;21144;-55
2022/06/13 05:14:09;;;;;;;5.65;4.60;;;;;;;28.62;44.79;101033.67;1603339;89;21630;-53
2022/06/13 05:16:48;;;;;;;5.47;4.97;;;;;;;28.80;44.77;101039.14;1604513;89;21066;-52
2022/06/13 05:19:45;;;;;;;5.25;4.83;;;;;;;28.94;44.51;101039.55;1601469;89;21142;-49
2022/06/13 05:22:35;;;;;;;5.20;4.70;;;;;;;29.10;44.19;101044.29;1603284;89;21127;-49
2022/06/13 05:25:31;;;;;;;5.58;4.60;;;;;;;29.28;45.01;101049.30;1578358;91;21030;-53
2022/06/13 05:27:59;;;;;;;5.17;4.70;;;;;;;29.44;45.01;101051.34;1577142;91;21022;-51
2022/06/13 05:30:26;;;;;;;5.40;4.90;;;;;;;29.62;45.20;101050.42;1578217;91;21551;-55
2022/06/13 05:32:53;;;;;;;6.15;4.83;;;;;;;29.80;44.98;101059.88;1578169;91;21147;-49
2022/06/13 05:35:23;;;;;;;6.30;4.92;;;;;;;29.93;44.73;101059.53;1577924;91;21631;-51
2022/06/13 05:37:50;;;;;;;5.00;4.53;;;;;;;30.00;44.46;101048.07;1578505;91;21045;-50
2022/06/13 05:40:20;;;;;;;7.65;4.35;;;;;;;30.07;44.42;101043.77;1578142;91;21070;-52
2022/06/13 05:42:48;;;;;;;5.65;5.08;;;;;;;30.08;43.47;101040.11;1555015;91;21660;-52
2022/06/13 05:45:19;;;;;;;5.53;4.72;;;;;;;29.91;42.71;101035.55;1585871;87;21045;-49
2022/06/13 05:47:48;;;;;;;5.05;4.65;;;;;;;29.96;43.35;101027.91;1607470;88;21021;-49
2022/06/13 05:50:24;;;;;;;5.90;5.00;;;;;;;30.01;44.53;101026.94;1638676;87;21038;-50
2022/06/13 05:52:52;;;;;;;4.40;4.08;;;;;;;30.05;43.79;101024.30;1553472;92;21069;-50
2022/06/13 05:55:19;;;;;;;7.28;4.62;;;;;;;30.27;41.95;101024.36;1580300;90;21639;-57
2022/06/13 05:57:46;;;;;;;5.15;4.75;;;;;;;30.41;40.79;101023.36;1580063;90;21083;-53
2022/06/13 06:00:22;;;;;;;7.85;4.75;;;;;;;30.49;40.65;101030.14;1579622;90;21131;-52
2022/06/13 06:02:49;;;;;;;5.33;4.83;;;;;;;30.59;40.38;101025.17;1569871;90;21567;-52
2022/06/13 06:05:16;;;;;;;5.92;4.80;;;;;;;30.70;40.18;101027.13;1586229;89;21609;-52
2022/06/13 06:07:43;;;;;;;5.03;4.47;;;;;;;30.81;39.81;101026.04;1608135;88;21065;-51
2022/06/13 06:10:29;;;;;;;5.28;4.58;;;;;;;30.91;39.69;101029.50;1613831;88;21018;-54
2022/06/13 06:12:57;;;;;;;5.30;4.83;;;;;;;31.01;39.51;101033.78;1621118;88;21574;-50
2022/06/13 06:15:25;;;;;;;6.58;5.00;;;;;;;31.16;39.44;101038.08;1613545;88;21094;-49
2022/06/13 06:17:52;;;;;;;7.55;4.85;;;;;;;31.29;39.24;101035.78;1608408;88;21093;-52
2022/06/13 06:20:20;;;;;;;5.00;4.60;;;;;;;31.47;38.92;101033.88;1613212;88;21133;-54
2022/06/13 06:22:47;;;;;;;6.62;4.40;;;;;;;31.64;38.87;101033.45;1614593;88;21062;-53
2022/06/13 06:25:14;;;;;;;7.08;4.83;;;;;;;31.85;39.17;101027.15;1614763;88;21108;-50
2022/06/13 06:27:41;;;;;;;8.30;4.90;;;;;;;32.13;39.38;101029.12;1613624;88;21610;-51
2022/06/13 06:30:11;;;;;;;4.97;4.30;;;;;;;32.46;39.29;101026.84;1613131;88;21570;-52
2022/06/13 06:32:38;;;;;;;5.95;4.60;;;;;;;32.80;38.67;101026.15;1613270;88;21548;-53
2022/06/13 06:35:07;;;;;;;5.05;4.62;;;;;;;33.09;37.92;101026.48;1613558;88;21207;-50
2022/06/13 06:37:33;;;;;;;5.97;4.70;;;;;;;33.29;37.60;101028.27;1613202;88;21538;-53
2022/06/13 06:40:00;;;;;;;4.95;4.50;;;;;;;33.36;37.26;101026.08;1628453;87;21015;-52
2022/06/13 06:42:27;;;;;;;5.53;4.95;;;;;;;33.36;37.54;101032.81;1642416;87;21026;-51
2022/06/13 06:44:54;;;;;;;7.92;5.15;;;;;;;33.28;37.43;101035.55;1642887;87;21496;-51
2022/06/13 06:47:21;;;;;;;12.18;5.40;;;;;;;33.18;37.64;101026.78;1638208;87;21098;-52
2022/06/13 06:49:48;;;;;;;4.80;4.30;;;;;;;33.09;37.64;101034.57;1714518;80;21031;-53
2022/06/13 06:52:15;;;;;;;5.37;4.87;;;;;;;33.03;37.77;101034.41;1779129;80;21014;-55
2022/06/13 07:00:14;;;;;;;6.97;4.80;;;;;;;32.81;38.05;101041.30;1770564;80;21034;-52
2022/06/13 07:02:41;;;;;;;6.17;5.55;;;;;;;32.77;38.25;101041.30;1772677;80;21054;-49
2022/06/13 07:05:10;;;;;;;7.53;5.37;;;;;;;32.75;37.94;101044.17;1769869;80;21582;-51
2022/06/13 07:07:38;;;;;;;5.20;4.80;;;;;;;32.79;37.96;101040.63;1758166;81;21066;-52
2022/06/13 07:10:07;;;;;;;5.05;4.65;;;;;;;32.88;38.19;101045.00;1764252;81;21011;-51
2022/06/13 07:12:34;;;;;;;6.15;4.70;;;;;;;32.98;37.88;101043.50;1768664;81;21491;-51
2022/06/13 07:15:00;;;;;;;5.45;4.95;;;;;;;33.00;37.44;101040.98;1764096;81;20983;-50
2022/06/13 07:17:27;;;;;;;5.70;4.92;;;;;;;33.03;37.42;101040.66;1763979;81;21011;-51
2022/06/13 07:19:55;;;;;;;5.62;4.87;;;;;;;33.07;37.28;101048.73;1765759;80;21061;-51
2022/06/13 07:22:23;;;;;;;5.75;5.15;;;;;;;33.15;37.00;101037.92;1762066;81;21051;-50
2022/06/13 07:24:51;;;;;;;8.13;4.87;;;;;;;33.29;36.33;101045.30;1762161;81;21026;-53
2022/06/13 07:27:19;;;;;;;5.78;4.92;;;;;;;33.47;35.69;101045.91;1765606;81;20983;-55
2022/06/13 07:29:47;;;;;;;8.13;5.42;;;;;;;33.74;35.21;101047.89;1762675;81;21031;-50
2022/06/13 07:32:22;;;;;;;5.55;4.60;;;;;;;34.00;34.68;101045.75;1777001;81;21022;-51
2022/06/13 07:34:52;;;;;;;6.22;4.53;;;;;;;34.18;33.62;101039.56;1738571;81;21023;-52
2022/06/13 07:40:09;;;;;;;5.47;3.83;;;;;;;34.22;32.78;101046.28;1763918;81;21041;-53
2022/06/13 07:42:41;;;;;;;3.83;3.52;;;;;;;34.17;31.74;101042.77;1760236;80;21037;-50
2022/06/13 07:45:12;;;;;;;5.85;3.50;;;;;;;34.10;31.26;101043.66;1707941;83;21031;-53
2022/06/13 07:47:39;;;;;;;5.37;3.58;;;;;;;34.03;31.64;101044.88;1709667;83;21019;-57
2022/06/13 07:50:08;;;;;;;6.65;3.50;;;;;;;34.00;32.26;101047.10;1715023;83;21042;-53
2022/06/13 07:52:36;;;;;;;3.85;3.05;;;;;;;33.98;32.03;101048.61;1708029;83;21558;-54
2022/06/13 07:55:05;;;;;;;3.37;3.12;;;;;;;33.93;31.35;101045.58;1706699;83;21050;-52
2022/06/13 07:57:32;;;;;;;5.00;3.20;;;;;;;33.90;32.00;101053.20;1701085;83;21085;-56
2022/06/13 08:00:00;;;;;;;3.22;2.60;;;;;;;33.90;32.94;101055.38;1709934;82;21013;-51
2022/06/13 08:02:30;;;;;;;5.10;3.10;;;;;;;33.89;32.20;101050.16;1718034;83;21188;-51
2022/06/13 08:04:57;;;;;;;4.08;2.90;;;;;;;33.87;31.96;101053.54;1705784;83;21046;-50
2022/06/13 08:07:24;;;;;;;3.77;3.45;;;;;;;33.85;31.90;101048.83;1702930;83;21519;-51
2022/06/13 08:09:51;;;;;;;3.58;3.27;;;;;;;33.81;31.63;101050.20;1705449;83;21039;-50
2022/06/13 08:12:19;;;;;;;4.62;3.30;;;;;;;33.77;31.62;101055.62;1711815;83;21539;-52
2022/06/13 08:14:47;;;;;;;3.42;3.12;;;;;;;33.74;31.65;101055.98;1709736;83;21085;-54
2022/06/13 08:17:16;;;;;;;3.00;2.70;;;;;;;33.74;31.33;101055.98;1708142;83;21086;-50
2022/06/13 08:19:43;;;;;;;3.67;3.22;;;;;;;33.73;30.92;101052.94;1705476;83;21090;-52
2022/06/13 08:22:09;;;;;;;3.42;3.12;;;;;;;33.73;31.20;101054.29;1710249;83;21046;-51
2022/06/13 08:24:36;;;;;;;4.20;3.00;;;;;;;33.75;31.46;101054.95;1708872;83;21130;-50
2022/06/13 08:27:04;;;;;;;2.65;2.45;;;;;;;33.75;30.79;101057.16;1712804;83;21055;-51
2022/06/13 08:29:31;;;;;;;3.10;2.80;;;;;;;33.77;30.22;101050.22;1715937;82;21073;-51
2022/06/13 08:31:59;;;;;;;3.90;2.90;;;;;;;33.78;30.42;101055.97;1723328;83;21324;-51
2022/06/13 08:34:26;;;;;;;8.25;3.50;;;;;;;33.78;31.32;101060.02;1705008;83;21038;-56
2022/06/13 08:36:53;;;;;;;3.50;2.70;;;;;;;33.76;31.38;101058.81;1712906;83;21559;-52
2022/06/13 08:39:20;;;;;;;3.02;2.80;;;;;;;33.73;31.05;101055.64;1708578;83;21042;-48
2022/06/13 08:42:16;;;;;;;3.90;3.22;;;;;;;33.70;31.43;101057.32;1725818;82;21050;-51
2022/06/13 08:45:01;;;;;;;3.60;3.30;;;;;;;33.69;31.41;101054.30;1763337;80;21035;-50
2022/06/13 08:47:44;;;;;;;3.37;3.05;;;;;;;33.69;31.66;101052.95;1728364;82;21054;-53
2022/06/13 08:50:37;;;;;;;3.22;2.95;;;;;;;33.68;31.61;101055.30;1718813;82;21077;-51
2022/06/13 08:53:26;;;;;;;3.87;2.67;;;;;;;33.65;30.93;101057.34;1721772;82;21086;-49
2022/06/13 08:56:00;;;;;;;3.17;2.87;;;;;;;33.68;29.83;101047.21;1728738;82;21027;-51
2022/06/13 08:58:39;;;;;;;3.65;3.35;;;;;;;33.69;29.76;101052.95;1726599;82;21064;-53
2022/06/13 09:01:29;;;;;;;3.90;2.77;;;;;;;33.70;30.47;101054.63;1727989;82;21050;-54
2022/06/13 09:04:15;;;;;;;3.77;3.40;;;;;;;33.70;30.70;101051.92;1704325;83;21519;-50
2022/06/13 09:07:14;;;;;;;4.60;3.22;;;;;;;33.70;30.78;101055.97;1640380;86;21140;-51
2022/06/13 09:10:02;;;;;;;3.02;2.77;;;;;;;33.71;32.00;101054.97;1590656;89;21105;-50
2022/06/13 09:12:43;;;;;;;3.67;3.33;;;;;;;33.74;32.08;101051.94;1416289;101;21181;-52
2022/06/13 09:15:18;;;;;;;4.45;3.15;;;;;;;33.78;32.17;101050.57;1398080;101;21187;-53
2022/06/13 09:18:02;;;;;;;3.60;3.30;;;;;;;33.79;32.76;101050.88;1408604;101;21107;-50
2022/06/13 09:20:53;;;;;;;3.55;3.27;;;;;;;33.81;32.61;101058.30;1403917;101;21642;-50
2022/06/13 09:23:48;;;;;;;3.37;3.08;;;;;;;33.83;32.25;101061.66;1407195;101;21149;-52
2022/06/13 09:26:22;;;;;;;4.37;3.33;;;;;;;33.84;32.60;101053.91;1411826;101;21610;-55
2022/06/13 09:29:23;;;;;;;4.25;3.83;;;;;;;33.86;33.02;101051.88;1407894;101;21153;-53
2022/06/13 09:32:20;;;;;;;4.72;3.72;;;;;;;33.88;33.39;101056.59;1399271;101;21723;-52
2022/06/13 09:34:57;;;;;;;4.35;3.95;;;;;;;33.89;33.66;101050.16;1404652;101;21172;-56
2022/06/13 09:37:35;;;;;;;3.92;3.62;;;;;;;33.90;33.71;101049.97;1398575;102;21581;-52
2022/06/13 09:40:02;;;;;;;5.78;4.03;;;;;;;33.92;33.93;101049.82;1398395;102;21176;-56
2022/06/13 09:42:50;;;;;;;6.12;4.00;;;;;;;33.96;34.21;101049.80;1403406;101;21091;-53
2022/06/13 09:45:41;;;;;;;4.87;3.67;;;;;;;34.02;34.20;101045.06;1447476;98;21100;-50
2022/06/13 09:48:32;;;;;;;4.78;3.58;;;;;;;34.06;34.39;101047.74;1444690;98;21176;-51
2022/06/13 09:51:29;;;;;;;4.03;3.58;;;;;;;34.11;34.27;101046.18;1450154;98;21116;-52
2022/06/13 09:54:22;;;;;;;4.95;3.75;;;;;;;34.15;34.43;101043.98;1366572;103;21208;-51
2022/06/13 09:57:14;;;;;;;6.17;4.17;;;;;;;34.21;34.55;101040.56;1397541;99;21669;-54
2022/06/13 10:00:10;;;;;;;4.17;3.62;;;;;;;34.24;34.07;101034.28;1405634;100;21743;-51
2022/06/13 10:02:45;;;;;;;13.20;4.80;;;;;;;34.29;34.35;101032.41;1412219;100;21100;-50
2022/06/13 10:05:26;;;;;;;5.45;4.08;;;;;;;34.29;34.72;101031.88;1417029;100;21097;-50
2022/06/13 10:08:14;;;;;;;;;;;;;;;34.30;34.65;101032.72;1486264;96;21184;-50
2022/06/13 10:10:59;;;;;;;3.62;3.33;;;;;;;34.34;34.75;101039.44;1457246;96;20138;-48
2022/06/13 10:13:40;;;;;;;3.92;3.62;;;;;;;34.36;34.82;101034.70;1461175;97;21072;-50
2022/06/13 10:16:30;;;;;;;4.00;3.60;;;;;;;34.37;34.59;101037.25;1453846;97;21123;-55
2022/06/13 10:19:21;;;;;;;4.17;3.70;;;;;;;34.40;34.57;101038.72;1421742;100;21124;-50
2022/06/13 10:21:57;;;;;;;4.83;3.50;;;;;;;34.43;34.25;101032.47;1395056;102;21141;-54
2022/06/13 10:24:44;;;;;;;4.72;3.77;;;;;;;34.50;34.23;101031.23;1393394;102;21110;-51
2022/06/13 10:27:52;;;;;;;4.50;3.60;;;;;;;34.52;33.73;101034.60;1369551;102;21657;-53
2022/06/13 10:30:23;;;;;;;3.80;3.50;;;;;;;34.55;33.87;101038.31;1374075;103;21159;-52
2022/06/13 10:33:12;;;;;;;3.77;3.30;;;;;;;34.55;33.94;101034.25;1367776;103;21154;-54
2022/06/13 10:36:16;;;;;;;4.17;3.77;;;;;;;34.56;33.79;101025.11;1307513;109;21257;-53
2022/06/13 10:39:00;;;;;;;3.50;3.22;;;;;;;34.59;33.71;101024.76;1307751;108;21201;-51
2022/06/13 10:41:27;;;;;;;4.55;4.08;;;;;;;34.60;33.64;101029.16;1315394;109;21272;-51
2022/06/13 10:43:55;;;;;;;6.47;3.35;;;;;;;34.58;34.05;101028.50;1332302;107;21260;-51
2022/06/13 10:46:22;;;;;;;4.10;3.67;;;;;;;34.57;34.30;101022.75;1355168;105;21222;-53
2022/06/13 10:48:56;;;;;;;6.08;3.02;;;;;;;34.54;34.42;101027.15;1398738;101;21193;-54
2022/06/13 10:51:23;;;;;;;3.58;3.20;;;;;;;34.52;34.39;101025.68;1397574;101;21102;-50
2022/06/13 10:54:22;;;;;;;3.72;3.42;;;;;;;34.45;34.26;101022.82;1374682;103;21153;-51
2022/06/13 10:56:52;;;;;;;3.50;3.20;;;;;;;34.40;34.05;101021.16;1422370;99;21113;-52
2022/06/13 10:59:29;;;;;;;4.97;3.58;;;;;;;34.38;34.76;101022.70;1443231;97;21148;-53
2022/06/13 11:02:23;;;;;;;3.40;3.20;;;;;;;34.39;34.63;101017.64;1503053;92;21086;-50
2022/06/13 11:05:07;;;;;;;3.95;3.05;;;;;;;34.41;34.74;101013.40;1553852;90;21121;-49
2022/06/13 11:07:45;;;;;;;5.08;3.75;;;;;;;34.42;34.57;101009.66;1488183;95;21595;-54
2022/06/13 11:10:45;;;;;;;3.58;3.27;;;;;;;34.43;34.76;101005.95;1500239;95;21129;-54
2022/06/13 11:13:15;;;;;;;3.30;3.00;;;;;;;34.45;34.49;101003.91;1496767;95;21124;-52
2022/06/13 11:24:41;;;;;;;4.80;3.50;;;;;;;34.44;34.79;100998.16;1495239;95;21097;-52
2022/06/13 11:27:42;;;;;;;4.65;3.80;;;;;;;34.44;35.33;101008.97;1494105;95;21120;-52
2022/06/13 11:30:36;;;;;;;;;;;;;;;34.39;35.36;101004.13;1492694;95;21153;-50
2022/06/13 11:33:09;;;;;;;3.77;3.17;;;;;;;34.35;35.17;101001.46;1506953;94;20185;-49
2022/06/13 11:35:46;;;;;;;4.47;3.95;;;;;;;34.28;34.94;100991.03;1536336;91;21562;-48
2022/06/13 11:38:34;;;;;;;3.72;3.42;;;;;;;34.22;35.46;100999.86;1561069;91;21114;-51
2022/06/13 11:41:14;;;;;;;5.30;3.20;;;;;;;34.15;35.72;100995.38;1559624;91;21109;-50
2022/06/13 11:44:04;;;;;;;4.12;3.70;;;;;;;34.09;35.75;100994.70;1566304;91;21567;-49
2022/06/13 11:46:55;;;;;;;5.12;3.50;;;;;;;34.06;36.00;100997.78;1552705;91;21070;-52
2022/06/13 11:49:40;;;;;;;3.80;3.50;;;;;;;34.05;35.56;100992.88;1557510;91;21074;-53
2022/06/13 11:53:35;;;;;;;3.20;3.00;;;;;;;34.07;35.55;100987.30;1554407;91;21089;-49
2022/06/13 11:57:39;;;;;;;4.58;3.30;;;;;;;34.14;35.09;100978.82;1517740;94;21098;-53
2022/06/13 12:00:19;;;;;;;5.17;3.65;;;;;;;34.18;34.81;100981.48;1524414;91;21071;-52
2022/06/13 12:02:54;;;;;;;3.45;3.00;;;;;;;34.24;35.35;100976.71;1650177;84;21072;-53
2022/06/13 12:05:28;;;;;;;3.42;3.17;;;;;;;34.30;35.49;100975.98;1636711;86;21068;-56
2022/06/13 12:08:01;;;;;;;4.67;3.47;;;;;;;34.33;35.49;100973.75;1703030;82;21031;-51
2022/06/13 12:10:32;;;;;;;4.60;3.50;;;;;;;34.36;35.33;100975.27;1702555;82;21616;-52
2022/06/13 12:13:01;;;;;;;4.80;3.70;;;;;;;34.38;35.72;100978.62;1644973;86;21002;-50
2022/06/13 12:15:37;;;;;;;3.55;3.25;;;;;;;34.41;35.89;100964.77;1644634;86;21041;-52
2022/06/13 12:18:44;;;;;;;3.50;3.20;;;;;;;34.45;36.01;100968.78;1507146;95;21062;-50
2022/06/13 12:21:26;;;;;;;5.05;3.50;;;;;;;34.48;36.19;100962.99;1507044;95;21655;-54
2022/06/13 12:24:18;;;;;;;3.50;3.25;;;;;;;34.54;35.97;100959.59;1500429;94;21147;-53
2022/06/13 12:27:13;;;;;;;4.12;3.35;;;;;;;34.58;36.06;100963.64;1505583;94;21087;-52
2022/06/13 12:29:52;;;;;;;4.60;3.27;;;;;;;34.60;35.98;100953.98;1456669;96;21121;-50
2022/06/13 12:32:29;;;;;;;3.70;3.35;;;;;;;34.57;36.13;100956.53;1439029;98;21180;-51
2022/06/13 12:35:40;;;;;;;5.10;3.65;;;;;;;34.52;35.83;100956.23;1437313;98;21721;-52
2022/06/13 12:38:17;;;;;;;;;;;;;;;34.48;34.87;100954.89;1445693;98;21152;-52
2022/06/13 12:41:20;;;;;;;3.80;3.50;;;;;;;34.42;33.92;100952.41;1439142;98;20197;-55